sensor_id;sensor_type;location;lat;lon;timestamp;temperature;humidity
35363;DHT22;21463;47.480;8.214;2023-08-01T00:00:13;21.30;63.70
35363;DHT22;21463;47.480;8.214;2023-08-01T00:01:15;21.30;63.60
35363;DHT22;21463;47.480;8.214;2023-08-01T00:02:17;21.30;63.70
35363;DHT22;21463;47.480;8.214;2023-08-01T00:03:20;21.40;63.80
35363;DHT22;21463;47.480;8.214;2023-08-01T00:04:22;21.30;63.70
35363;DHT22;21463;47.480;8.214;2023-08-01T00:05:26;21.30;63.70
35363;DHT22;21463;47.480;8.214;2023-08-01T00:06:28;21.30;63.70
35363;DHT22;21463;47.480;8.214;2023-08-01T00:07:30;21.30;63.70
35363;DHT22;21463;47.480;8.214;2023-08-01T00:08:35;21.30;63.70
35363;DHT22;21463;47.480;8.214;2023-08-01T00:09:37;21.30;63.70
35363;DHT22;21463;47.480;8.214;2023-08-01T00:10:40;21.30;63.80
35363;DHT22;21463;47.480;8.214;2023-08-01T00:11:42;21.30;63.80
35363;DHT22;21463;47.480;8.214;2023-08-01T00:12:44;21.20;63.80
35363;DHT22;21463;47.480;8.214;2023-08-01T00:13:47;21.30;63.80
35363;DHT22;21463;47.480;8.214;2023-08-01T00:14:50;21.30;63.80
35363;DHT22;21463;47.480;8.214;2023-08-01T00:15:54;21.30;63.80
35363;DHT22;21463;47.480;8.214;2023-08-01T00:17:09;21.30;63.80
35363;DHT22;21463;47.480;8.214;2023-08-01T00:18:14;21.30;63.80
35363;DHT22;21463;47.480;8.214;2023-08-01T00:19:16;21.30;63.80
35363;DHT22;21463;47.480;8.214;2023-08-01T00:20:19;21.30;63.80
35363;DHT22;21463;47.480;8.214;2023-08-01T00:21:21;21.30;63.80
35363;DHT22;21463;47.480;8.214;2023-08-01T00:22:24;21.30;63.80
35363;DHT22;21463;47.480;8.214;2023-08-01T00:23:26;21.30;63.80
35363;DHT22;21463;47.480;8.214;2023-08-01T00:24:28;21.30;63.80
35363;DHT22;21463;47.480;8.214;2023-08-01T00:25:31;21.30;63.80
35363;DHT22;21463;47.480;8.214;2023-08-01T00:26:34;21.30;63.80
35363;DHT22;21463;47.480;8.214;2023-08-01T00:27:36;21.30;63.90
35363;DHT22;21463;47.480;8.214;2023-08-01T00:28:41;21.30;63.90
35363;DHT22;21463;47.480;8.214;2023-08-01T00:29:44;21.30;63.90
35363;DHT22;21463;47.480;8.214;2023-08-01T00:30:47;21.30;63.90
35363;DHT22;21463;47.480;8.214;2023-08-01T00:31:49;21.30;63.90
35363;DHT22;21463;47.480;8.214;2023-08-01T00:32:52;21.30;64.00
35363;DHT22;21463;47.480;8.214;2023-08-01T00:33:59;21.30;64.00
35363;DHT22;21463;47.480;8.214;2023-08-01T00:35:01;21.30;64.00
35363;DHT22;21463;47.480;8.214;2023-08-01T00:36:03;21.30;64.00
35363;DHT22;21463;47.480;8.214;2023-08-01T00:37:12;21.30;64.00
35363;DHT22;21463;47.480;8.214;2023-08-01T00:38:14;21.30;64.00
35363;DHT22;21463;47.480;8.214;2023-08-01T00:39:16;21.30;64.00
35363;DHT22;21463;47.480;8.214;2023-08-01T00:40:19;21.30;64.00
35363;DHT22;21463;47.480;8.214;2023-08-01T00:41:21;21.30;64.00
35363;DHT22;21463;47.480;8.214;2023-08-01T00:42:23;21.30;64.00
35363;DHT22;21463;47.480;8.214;2023-08-01T00:43:26;21.30;64.00
35363;DHT22;21463;47.480;8.214;2023-08-01T00:44:28;21.30;64.00
35363;DHT22;21463;47.480;8.214;2023-08-01T00:45:31;21.30;64.10
35363;DHT22;21463;47.480;8.214;2023-08-01T00:46:33;21.30;64.00
35363;DHT22;21463;47.480;8.214;2023-08-01T00:47:35;21.30;64.10
35363;DHT22;21463;47.480;8.214;2023-08-01T00:48:38;21.40;64.10
35363;DHT22;21463;47.480;8.214;2023-08-01T00:49:40;21.40;64.20
35363;DHT22;21463;47.480;8.214;2023-08-01T00:50:43;21.30;64.10
35363;DHT22;21463;47.480;8.214;2023-08-01T00:51:45;21.30;64.10
35363;DHT22;21463;47.480;8.214;2023-08-01T00:52:48;21.30;64.10
35363;DHT22;21463;47.480;8.214;2023-08-01T00:53:51;21.30;64.10
35363;DHT22;21463;47.480;8.214;2023-08-01T00:54:54;21.30;64.10
35363;DHT22;21463;47.480;8.214;2023-08-01T00:55:56;21.30;64.10
35363;DHT22;21463;47.480;8.214;2023-08-01T00:57:00;21.30;64.10
35363;DHT22;21463;47.480;8.214;2023-08-01T00:58:03;21.30;64.10
35363;DHT22;21463;47.480;8.214;2023-08-01T00:59:06;21.30;64.10
35363;DHT22;21463;47.480;8.214;2023-08-01T01:00:08;21.30;64.10
35363;DHT22;21463;47.480;8.214;2023-08-01T01:01:11;21.30;64.10
35363;DHT22;21463;47.480;8.214;2023-08-01T01:02:13;21.30;64.20
35363;DHT22;21463;47.480;8.214;2023-08-01T01:03:17;21.30;64.20
35363;DHT22;21463;47.480;8.214;2023-08-01T01:04:20;21.30;64.20
35363;DHT22;21463;47.480;8.214;2023-08-01T01:05:22;21.30;64.20
35363;DHT22;21463;47.480;8.214;2023-08-01T01:06:35;21.30;64.20
35363;DHT22;21463;47.480;8.214;2023-08-01T01:07:40;21.30;64.20
35363;DHT22;21463;47.480;8.214;2023-08-01T01:08:43;21.30;64.20
35363;DHT22;21463;47.480;8.214;2023-08-01T01:09:45;21.40;64.30
35363;DHT22;21463;47.480;8.214;2023-08-01T01:10:48;21.20;64.20
35363;DHT22;21463;47.480;8.214;2023-08-01T01:11:51;21.20;64.30
35363;DHT22;21463;47.480;8.214;2023-08-01T01:12:56;21.30;64.30
35363;DHT22;21463;47.480;8.214;2023-08-01T01:13:59;21.30;64.30
35363;DHT22;21463;47.480;8.214;2023-08-01T01:15:02;21.40;64.30
35363;DHT22;21463;47.480;8.214;2023-08-01T01:16:05;21.30;64.30
35363;DHT22;21463;47.480;8.214;2023-08-01T01:17:07;21.30;64.30
35363;DHT22;21463;47.480;8.214;2023-08-01T01:18:09;21.20;64.20
35363;DHT22;21463;47.480;8.214;2023-08-01T01:19:12;21.30;64.30
35363;DHT22;21463;47.480;8.214;2023-08-01T01:20:14;21.30;64.30
35363;DHT22;21463;47.480;8.214;2023-08-01T01:21:16;21.30;64.30
35363;DHT22;21463;47.480;8.214;2023-08-01T01:22:19;21.30;64.30
35363;DHT22;21463;47.480;8.214;2023-08-01T01:23:21;21.30;64.30
35363;DHT22;21463;47.480;8.214;2023-08-01T01:24:24;21.30;64.30
35363;DHT22;21463;47.480;8.214;2023-08-01T01:25:27;21.30;64.30
35363;DHT22;21463;47.480;8.214;2023-08-01T01:26:30;21.30;64.40
35363;DHT22;21463;47.480;8.214;2023-08-01T01:27:34;21.30;64.40
35363;DHT22;21463;47.480;8.214;2023-08-01T01:28:37;21.30;64.40
35363;DHT22;21463;47.480;8.214;2023-08-01T01:29:40;21.30;64.30
35363;DHT22;21463;47.480;8.214;2023-08-01T01:30:46;21.30;64.40
35363;DHT22;21463;47.480;8.214;2023-08-01T01:31:50;21.30;64.40
35363;DHT22;21463;47.480;8.214;2023-08-01T01:32:53;21.30;64.40
35363;DHT22;21463;47.480;8.214;2023-08-01T01:33:56;21.30;64.40
35363;DHT22;21463;47.480;8.214;2023-08-01T01:35:00;21.30;64.40
35363;DHT22;21463;47.480;8.214;2023-08-01T01:36:03;21.30;64.40
35363;DHT22;21463;47.480;8.214;2023-08-01T01:37:05;21.40;64.50
35363;DHT22;21463;47.480;8.214;2023-08-01T01:38:10;21.30;64.50
35363;DHT22;21463;47.480;8.214;2023-08-01T01:39:12;21.20;64.40
35363;DHT22;21463;47.480;8.214;2023-08-01T01:40:15;21.30;64.50
35363;DHT22;21463;47.480;8.214;2023-08-01T01:41:17;21.30;64.50
35363;DHT22;21463;47.480;8.214;2023-08-01T01:42:22;21.30;64.50
35363;DHT22;21463;47.480;8.214;2023-08-01T01:43:24;21.30;64.50
35363;DHT22;21463;47.480;8.214;2023-08-01T01:44:27;21.30;64.50
35363;DHT22;21463;47.480;8.214;2023-08-01T01:45:30;21.30;64.50
35363;DHT22;21463;47.480;8.214;2023-08-01T01:46:32;21.30;64.50
35363;DHT22;21463;47.480;8.214;2023-08-01T01:47:34;20.30;64.00
35363;DHT22;21463;47.480;8.214;2023-08-01T01:48:36;21.30;64.60
35363;DHT22;21463;47.480;8.214;2023-08-01T01:49:40;21.30;64.50
35363;DHT22;21463;47.480;8.214;2023-08-01T01:50:43;21.30;64.60
35363;DHT22;21463;47.480;8.214;2023-08-01T01:51:47;21.30;64.60
35363;DHT22;21463;47.480;8.214;2023-08-01T01:52:50;21.30;64.60
35363;DHT22;21463;47.480;8.214;2023-08-01T01:53:53;21.30;64.60
35363;DHT22;21463;47.480;8.214;2023-08-01T01:55:01;21.30;64.60
35363;DHT22;21463;47.480;8.214;2023-08-01T01:56:03;21.30;64.60
35363;DHT22;21463;47.480;8.214;2023-08-01T01:57:06;21.30;64.60
35363;DHT22;21463;47.480;8.214;2023-08-01T01:58:08;21.30;64.70
35363;DHT22;21463;47.480;8.214;2023-08-01T01:59:11;21.30;64.70
35363;DHT22;21463;47.480;8.214;2023-08-01T02:00:13;21.30;64.70
35363;DHT22;21463;47.480;8.214;2023-08-01T02:01:15;21.30;64.70
35363;DHT22;21463;47.480;8.214;2023-08-01T02:02:18;21.30;64.70
35363;DHT22;21463;47.480;8.214;2023-08-01T02:03:20;21.30;64.80
35363;DHT22;21463;47.480;8.214;2023-08-01T02:04:23;21.30;64.70
35363;DHT22;21463;47.480;8.214;2023-08-01T02:05:26;21.30;64.70
35363;DHT22;21463;47.480;8.214;2023-08-01T02:06:31;21.30;64.70
35363;DHT22;21463;47.480;8.214;2023-08-01T02:07:34;21.30;64.70
35363;DHT22;21463;47.480;8.214;2023-08-01T02:08:37;21.30;64.70
35363;DHT22;21463;47.480;8.214;2023-08-01T02:09:39;21.30;64.70
35363;DHT22;21463;47.480;8.214;2023-08-01T02:10:43;21.30;64.70
35363;DHT22;21463;47.480;8.214;2023-08-01T02:11:46;21.30;64.70
35363;DHT22;21463;47.480;8.214;2023-08-01T02:12:51;21.30;64.80
35363;DHT22;21463;47.480;8.214;2023-08-01T02:13:53;21.30;64.80
35363;DHT22;21463;47.480;8.214;2023-08-01T02:14:58;21.30;64.80
35363;DHT22;21463;47.480;8.214;2023-08-01T02:16:01;21.30;64.80
35363;DHT22;21463;47.480;8.214;2023-08-01T02:17:04;21.30;64.80
35363;DHT22;21463;47.480;8.214;2023-08-01T02:18:07;21.30;64.90
35363;DHT22;21463;47.480;8.214;2023-08-01T02:19:09;21.30;64.90
35363;DHT22;21463;47.480;8.214;2023-08-01T02:20:11;21.30;64.90
35363;DHT22;21463;47.480;8.214;2023-08-01T02:21:13;21.30;64.90
35363;DHT22;21463;47.480;8.214;2023-08-01T02:22:16;21.30;64.90
35363;DHT22;21463;47.480;8.214;2023-08-01T02:23:18;21.30;64.90
35363;DHT22;21463;47.480;8.214;2023-08-01T02:24:20;21.30;64.90
35363;DHT22;21463;47.480;8.214;2023-08-01T02:25:23;21.30;65.00
35363;DHT22;21463;47.480;8.214;2023-08-01T02:26:25;21.30;65.00
35363;DHT22;21463;47.480;8.214;2023-08-01T02:27:27;21.30;65.00
35363;DHT22;21463;47.480;8.214;2023-08-01T02:28:30;21.30;65.00
35363;DHT22;21463;47.480;8.214;2023-08-01T02:29:32;21.30;65.00
35363;DHT22;21463;47.480;8.214;2023-08-01T02:30:35;21.30;65.00
35363;DHT22;21463;47.480;8.214;2023-08-01T02:31:37;21.30;65.00
35363;DHT22;21463;47.480;8.214;2023-08-01T02:32:40;21.30;65.00
35363;DHT22;21463;47.480;8.214;2023-08-01T02:33:42;21.30;65.10
35363;DHT22;21463;47.480;8.214;2023-08-01T02:34:44;21.20;65.00
35363;DHT22;21463;47.480;8.214;2023-08-01T02:35:47;21.30;65.10
35363;DHT22;21463;47.480;8.214;2023-08-01T02:36:49;21.30;65.10
35363;DHT22;21463;47.480;8.214;2023-08-01T02:37:52;21.30;65.10
35363;DHT22;21463;47.480;8.214;2023-08-01T02:38:54;21.30;65.10
35363;DHT22;21463;47.480;8.214;2023-08-01T02:39:56;21.30;65.10
35363;DHT22;21463;47.480;8.214;2023-08-01T02:40:59;21.30;65.20
35363;DHT22;21463;47.480;8.214;2023-08-01T02:42:04;21.30;65.30
35363;DHT22;21463;47.480;8.214;2023-08-01T02:43:06;21.30;65.20
35363;DHT22;21463;47.480;8.214;2023-08-01T02:44:09;21.30;65.20
35363;DHT22;21463;47.480;8.214;2023-08-01T02:45:11;21.30;65.20
35363;DHT22;21463;47.480;8.214;2023-08-01T02:46:13;21.30;65.20
35363;DHT22;21463;47.480;8.214;2023-08-01T02:47:15;21.30;65.20
35363;DHT22;21463;47.480;8.214;2023-08-01T02:48:18;21.30;65.30
35363;DHT22;21463;47.480;8.214;2023-08-01T02:49:21;21.30;65.30
35363;DHT22;21463;47.480;8.214;2023-08-01T02:50:24;21.30;65.30
35363;DHT22;21463;47.480;8.214;2023-08-01T02:51:26;21.30;65.30
35363;DHT22;21463;47.480;8.214;2023-08-01T02:52:29;21.30;65.30
35363;DHT22;21463;47.480;8.214;2023-08-01T02:53:32;21.30;65.30
35363;DHT22;21463;47.480;8.214;2023-08-01T02:54:34;21.30;65.30
35363;DHT22;21463;47.480;8.214;2023-08-01T02:55:36;21.30;65.40
35363;DHT22;21463;47.480;8.214;2023-08-01T02:56:39;21.30;65.40
35363;DHT22;21463;47.480;8.214;2023-08-01T02:57:44;21.30;65.40
35363;DHT22;21463;47.480;8.214;2023-08-01T02:58:47;21.30;65.50
35363;DHT22;21463;47.480;8.214;2023-08-01T02:59:49;21.30;65.50
35363;DHT22;21463;47.480;8.214;2023-08-01T03:00:52;21.30;65.50
35363;DHT22;21463;47.480;8.214;2023-08-01T03:01:54;21.30;65.50
35363;DHT22;21463;47.480;8.214;2023-08-01T03:02:57;21.30;65.50
35363;DHT22;21463;47.480;8.214;2023-08-01T03:03:59;21.30;65.50
35363;DHT22;21463;47.480;8.214;2023-08-01T03:05:01;21.30;65.50
35363;DHT22;21463;47.480;8.214;2023-08-01T03:06:07;21.30;65.50
35363;DHT22;21463;47.480;8.214;2023-08-01T03:07:09;21.30;65.50
35363;DHT22;21463;47.480;8.214;2023-08-01T03:08:12;21.30;65.60
35363;DHT22;21463;47.480;8.214;2023-08-01T03:09:15;21.30;65.60
35363;DHT22;21463;47.480;8.214;2023-08-01T03:10:18;21.30;65.60
35363;DHT22;21463;47.480;8.214;2023-08-01T03:11:40;21.30;65.70
35363;DHT22;21463;47.480;8.214;2023-08-01T03:12:42;21.30;65.70
35363;DHT22;21463;47.480;8.214;2023-08-01T03:13:46;21.30;65.70
35363;DHT22;21463;47.480;8.214;2023-08-01T03:14:52;21.30;65.70
35363;DHT22;21463;47.480;8.214;2023-08-01T03:15:54;21.30;65.70
35363;DHT22;21463;47.480;8.214;2023-08-01T03:16:57;21.30;66.20
35363;DHT22;21463;47.480;8.214;2023-08-01T03:17:59;21.30;65.70
35363;DHT22;21463;47.480;8.214;2023-08-01T03:19:05;21.30;65.70
35363;DHT22;21463;47.480;8.214;2023-08-01T03:20:07;21.30;65.70
35363;DHT22;21463;47.480;8.214;2023-08-01T03:21:13;21.30;65.80
35363;DHT22;21463;47.480;8.214;2023-08-01T03:22:15;21.30;65.80
35363;DHT22;21463;47.480;8.214;2023-08-01T03:23:18;21.30;65.80
35363;DHT22;21463;47.480;8.214;2023-08-01T03:24:24;21.30;65.80
35363;DHT22;21463;47.480;8.214;2023-08-01T03:25:26;21.30;65.90
35363;DHT22;21463;47.480;8.214;2023-08-01T03:26:30;21.30;65.90
35363;DHT22;21463;47.480;8.214;2023-08-01T03:27:33;21.30;65.90
35363;DHT22;21463;47.480;8.214;2023-08-01T03:28:35;21.30;65.90
35363;DHT22;21463;47.480;8.214;2023-08-01T03:29:39;21.30;66.00
35363;DHT22;21463;47.480;8.214;2023-08-01T03:30:42;21.30;66.00
35363;DHT22;21463;47.480;8.214;2023-08-01T03:31:44;21.30;66.00
35363;DHT22;21463;47.480;8.214;2023-08-01T03:32:46;21.30;66.00
35363;DHT22;21463;47.480;8.214;2023-08-01T03:33:54;21.30;66.00
35363;DHT22;21463;47.480;8.214;2023-08-01T03:34:57;21.30;66.10
35363;DHT22;21463;47.480;8.214;2023-08-01T03:36:00;21.30;66.10
35363;DHT22;21463;47.480;8.214;2023-08-01T03:37:02;21.30;66.20
35363;DHT22;21463;47.480;8.214;2023-08-01T03:38:05;21.30;66.20
35363;DHT22;21463;47.480;8.214;2023-08-01T03:39:08;21.30;66.20
35363;DHT22;21463;47.480;8.214;2023-08-01T03:40:12;21.30;66.10
35363;DHT22;21463;47.480;8.214;2023-08-01T03:41:17;21.40;66.20
35363;DHT22;21463;47.480;8.214;2023-08-01T03:42:24;21.30;66.20
35363;DHT22;21463;47.480;8.214;2023-08-01T03:43:26;21.30;66.20
35363;DHT22;21463;47.480;8.214;2023-08-01T03:44:28;21.30;66.30
35363;DHT22;21463;47.480;8.214;2023-08-01T03:45:31;21.30;66.30
35363;DHT22;21463;47.480;8.214;2023-08-01T03:46:34;21.30;66.30
35363;DHT22;21463;47.480;8.214;2023-08-01T03:47:36;21.30;66.30
35363;DHT22;21463;47.480;8.214;2023-08-01T03:48:38;21.30;66.30
35363;DHT22;21463;47.480;8.214;2023-08-01T03:49:41;21.30;66.30
35363;DHT22;21463;47.480;8.214;2023-08-01T03:50:44;21.30;66.30
35363;DHT22;21463;47.480;8.214;2023-08-01T03:51:46;21.30;66.40
35363;DHT22;21463;47.480;8.214;2023-08-01T03:52:48;21.30;66.40
35363;DHT22;21463;47.480;8.214;2023-08-01T03:53:51;21.30;66.50
35363;DHT22;21463;47.480;8.214;2023-08-01T03:55:08;21.30;66.40
35363;DHT22;21463;47.480;8.214;2023-08-01T03:56:14;21.30;66.50
35363;DHT22;21463;47.480;8.214;2023-08-01T03:57:16;21.30;66.50
35363;DHT22;21463;47.480;8.214;2023-08-01T03:58:18;21.30;66.50
35363;DHT22;21463;47.480;8.214;2023-08-01T03:59:20;21.30;66.60
35363;DHT22;21463;47.480;8.214;2023-08-01T04:00:23;21.30;66.50
35363;DHT22;21463;47.480;8.214;2023-08-01T04:01:25;21.30;66.60
35363;DHT22;21463;47.480;8.214;2023-08-01T04:02:28;21.30;66.60
35363;DHT22;21463;47.480;8.214;2023-08-01T04:03:31;21.30;66.60
35363;DHT22;21463;47.480;8.214;2023-08-01T04:04:36;21.30;66.70
35363;DHT22;21463;47.480;8.214;2023-08-01T04:05:39;21.30;66.60
35363;DHT22;21463;47.480;8.214;2023-08-01T04:06:42;21.30;66.60
35363;DHT22;21463;47.480;8.214;2023-08-01T04:07:45;21.30;66.60
35363;DHT22;21463;47.480;8.214;2023-08-01T04:08:48;21.30;66.70
35363;DHT22;21463;47.480;8.214;2023-08-01T04:09:50;21.30;66.70
35363;DHT22;21463;47.480;8.214;2023-08-01T04:10:52;21.30;66.70
35363;DHT22;21463;47.480;8.214;2023-08-01T04:11:54;21.30;66.70
35363;DHT22;21463;47.480;8.214;2023-08-01T04:12:57;21.40;66.80
35363;DHT22;21463;47.480;8.214;2023-08-01T04:13:59;21.40;66.80
35363;DHT22;21463;47.480;8.214;2023-08-01T04:15:02;21.30;66.80
35363;DHT22;21463;47.480;8.214;2023-08-01T04:16:05;21.30;66.80
35363;DHT22;21463;47.480;8.214;2023-08-01T04:17:07;21.30;66.70
35363;DHT22;21463;47.480;8.214;2023-08-01T04:18:09;21.30;66.80
35363;DHT22;21463;47.480;8.214;2023-08-01T04:19:12;21.30;66.80
35363;DHT22;21463;47.480;8.214;2023-08-01T04:20:15;21.30;66.80
35363;DHT22;21463;47.480;8.214;2023-08-01T04:21:18;21.30;66.80
35363;DHT22;21463;47.480;8.214;2023-08-01T04:22:20;21.30;66.80
35363;DHT22;21463;47.480;8.214;2023-08-01T04:23:22;21.30;66.80
35363;DHT22;21463;47.480;8.214;2023-08-01T04:24:24;21.30;66.80
35363;DHT22;21463;47.480;8.214;2023-08-01T04:25:27;21.30;66.80
35363;DHT22;21463;47.480;8.214;2023-08-01T04:26:29;21.30;66.90
35363;DHT22;21463;47.480;8.214;2023-08-01T04:27:32;21.30;67.00
35363;DHT22;21463;47.480;8.214;2023-08-01T04:28:34;21.30;67.40
35363;DHT22;21463;47.480;8.214;2023-08-01T04:29:36;21.30;66.90
35363;DHT22;21463;47.480;8.214;2023-08-01T04:30:39;21.30;67.00
35363;DHT22;21463;47.480;8.214;2023-08-01T04:31:41;21.30;67.00
35363;DHT22;21463;47.480;8.214;2023-08-01T04:32:43;21.30;67.00
35363;DHT22;21463;47.480;8.214;2023-08-01T04:33:46;21.30;67.00
35363;DHT22;21463;47.480;8.214;2023-08-01T04:34:48;21.30;67.00
35363;DHT22;21463;47.480;8.214;2023-08-01T04:35:50;21.30;67.50
35363;DHT22;21463;47.480;8.214;2023-08-01T04:36:53;21.30;67.00
35363;DHT22;21463;47.480;8.214;2023-08-01T04:37:55;21.30;67.00
35363;DHT22;21463;47.480;8.214;2023-08-01T04:38:58;21.30;67.50
35363;DHT22;21463;47.480;8.214;2023-08-01T04:40:00;21.30;67.10
35363;DHT22;21463;47.480;8.214;2023-08-01T04:41:02;21.30;67.10
35363;DHT22;21463;47.480;8.214;2023-08-01T04:42:05;21.30;67.10
35363;DHT22;21463;47.480;8.214;2023-08-01T04:43:14;21.30;67.10
35363;DHT22;21463;47.480;8.214;2023-08-01T04:44:16;21.30;67.10
35363;DHT22;21463;47.480;8.214;2023-08-01T04:45:21;21.30;67.10
35363;DHT22;21463;47.480;8.214;2023-08-01T04:46:24;21.30;67.10
35363;DHT22;21463;47.480;8.214;2023-08-01T04:47:26;21.30;67.10
35363;DHT22;21463;47.480;8.214;2023-08-01T04:48:28;21.30;67.20
35363;DHT22;21463;47.480;8.214;2023-08-01T04:49:31;21.30;67.20
35363;DHT22;21463;47.480;8.214;2023-08-01T04:50:33;21.30;67.10
35363;DHT22;21463;47.480;8.214;2023-08-01T04:51:36;21.30;67.10
35363;DHT22;21463;47.480;8.214;2023-08-01T04:52:39;21.30;67.20
35363;DHT22;21463;47.480;8.214;2023-08-01T04:53:41;21.30;67.20
35363;DHT22;21463;47.480;8.214;2023-08-01T04:54:43;21.30;67.20
35363;DHT22;21463;47.480;8.214;2023-08-01T04:55:48;21.30;67.20
35363;DHT22;21463;47.480;8.214;2023-08-01T04:56:50;21.30;67.20
35363;DHT22;21463;47.480;8.214;2023-08-01T04:57:53;21.30;67.20
35363;DHT22;21463;47.480;8.214;2023-08-01T04:58:55;21.30;67.20
35363;DHT22;21463;47.480;8.214;2023-08-01T04:59:57;21.30;67.30
35363;DHT22;21463;47.480;8.214;2023-08-01T05:01:01;21.30;67.30
35363;DHT22;21463;47.480;8.214;2023-08-01T05:02:04;21.30;67.20
35363;DHT22;21463;47.480;8.214;2023-08-01T05:03:06;21.30;67.20
35363;DHT22;21463;47.480;8.214;2023-08-01T05:04:09;22.10;67.80
35363;DHT22;21463;47.480;8.214;2023-08-01T05:05:11;21.30;67.20
35363;DHT22;21463;47.480;8.214;2023-08-01T05:06:13;21.30;67.20
35363;DHT22;21463;47.480;8.214;2023-08-01T05:07:16;21.30;67.20
35363;DHT22;21463;47.480;8.214;2023-08-01T05:08:18;21.30;67.30
35363;DHT22;21463;47.480;8.214;2023-08-01T05:09:20;21.30;67.20
35363;DHT22;21463;47.480;8.214;2023-08-01T05:10:23;21.30;67.30
35363;DHT22;21463;47.480;8.214;2023-08-01T05:11:25;21.30;67.30
35363;DHT22;21463;47.480;8.214;2023-08-01T05:12:27;21.30;67.30
35363;DHT22;21463;47.480;8.214;2023-08-01T05:13:29;21.30;67.40
35363;DHT22;21463;47.480;8.214;2023-08-01T05:14:32;21.30;67.40
35363;DHT22;21463;47.480;8.214;2023-08-01T05:15:35;21.30;67.30
35363;DHT22;21463;47.480;8.214;2023-08-01T05:16:37;21.30;67.30
35363;DHT22;21463;47.480;8.214;2023-08-01T05:17:40;21.30;67.40
35363;DHT22;21463;47.480;8.214;2023-08-01T05:18:44;21.30;67.30
35363;DHT22;21463;47.480;8.214;2023-08-01T05:19:46;21.30;67.30
35363;DHT22;21463;47.480;8.214;2023-08-01T05:20:48;21.30;67.30
35363;DHT22;21463;47.480;8.214;2023-08-01T05:21:51;21.30;67.40
35363;DHT22;21463;47.480;8.214;2023-08-01T05:22:53;21.30;67.40
35363;DHT22;21463;47.480;8.214;2023-08-01T05:23:57;21.40;67.40
35363;DHT22;21463;47.480;8.214;2023-08-01T05:24:59;21.30;67.40
35363;DHT22;21463;47.480;8.214;2023-08-01T05:26:02;21.30;67.40
35363;DHT22;21463;47.480;8.214;2023-08-01T05:27:05;21.30;67.40
35363;DHT22;21463;47.480;8.214;2023-08-01T05:28:07;21.20;67.40
35363;DHT22;21463;47.480;8.214;2023-08-01T05:29:09;21.30;67.40
35363;DHT22;21463;47.480;8.214;2023-08-01T05:30:12;21.30;67.40
35363;DHT22;21463;47.480;8.214;2023-08-01T05:31:14;21.30;67.40
35363;DHT22;21463;47.480;8.214;2023-08-01T05:32:16;21.30;67.50
35363;DHT22;21463;47.480;8.214;2023-08-01T05:33:23;21.30;67.40
35363;DHT22;21463;47.480;8.214;2023-08-01T05:34:26;21.30;67.50
35363;DHT22;21463;47.480;8.214;2023-08-01T05:35:28;21.30;67.50
35363;DHT22;21463;47.480;8.214;2023-08-01T05:36:30;21.30;67.50
35363;DHT22;21463;47.480;8.214;2023-08-01T05:37:34;21.20;67.40
35363;DHT22;21463;47.480;8.214;2023-08-01T05:38:39;21.30;67.50
35363;DHT22;21463;47.480;8.214;2023-08-01T05:39:41;21.30;67.50
35363;DHT22;21463;47.480;8.214;2023-08-01T05:40:44;21.30;67.50
35363;DHT22;21463;47.480;8.214;2023-08-01T05:41:49;21.30;67.50
35363;DHT22;21463;47.480;8.214;2023-08-01T05:42:52;21.30;67.50
35363;DHT22;21463;47.480;8.214;2023-08-01T05:43:56;21.30;67.50
35363;DHT22;21463;47.480;8.214;2023-08-01T05:44:58;21.30;67.50
35363;DHT22;21463;47.480;8.214;2023-08-01T05:46:00;21.30;67.50
35363;DHT22;21463;47.480;8.214;2023-08-01T05:47:03;21.30;67.50
35363;DHT22;21463;47.480;8.214;2023-08-01T05:48:06;21.30;67.50
35363;DHT22;21463;47.480;8.214;2023-08-01T05:49:09;21.30;67.50
35363;DHT22;21463;47.480;8.214;2023-08-01T05:50:11;21.20;67.50
35363;DHT22;21463;47.480;8.214;2023-08-01T05:51:13;21.30;67.60
35363;DHT22;21463;47.480;8.214;2023-08-01T05:52:18;21.40;67.60
35363;DHT22;21463;47.480;8.214;2023-08-01T05:53:20;21.30;67.60
35363;DHT22;21463;47.480;8.214;2023-08-01T05:54:22;21.30;67.50
35363;DHT22;21463;47.480;8.214;2023-08-01T05:55:25;21.30;67.60
35363;DHT22;21463;47.480;8.214;2023-08-01T05:56:29;21.30;67.50
35363;DHT22;21463;47.480;8.214;2023-08-01T05:57:32;21.30;67.50
35363;DHT22;21463;47.480;8.214;2023-08-01T05:58:34;21.30;67.70
35363;DHT22;21463;47.480;8.214;2023-08-01T05:59:38;21.30;67.50
35363;DHT22;21463;47.480;8.214;2023-08-01T06:00:41;21.30;67.50
35363;DHT22;21463;47.480;8.214;2023-08-01T06:01:43;21.30;67.50
35363;DHT22;21463;47.480;8.214;2023-08-01T06:02:46;21.30;67.60
35363;DHT22;21463;47.480;8.214;2023-08-01T06:03:48;21.30;67.60
35363;DHT22;21463;47.480;8.214;2023-08-01T06:04:51;21.30;67.60
35363;DHT22;21463;47.480;8.214;2023-08-01T06:05:53;21.20;67.50
35363;DHT22;21463;47.480;8.214;2023-08-01T06:06:55;21.30;67.60
35363;DHT22;21463;47.480;8.214;2023-08-01T06:08:00;21.30;67.60
35363;DHT22;21463;47.480;8.214;2023-08-01T06:09:02;21.30;67.60
35363;DHT22;21463;47.480;8.214;2023-08-01T06:10:05;21.30;67.60
35363;DHT22;21463;47.480;8.214;2023-08-01T06:11:07;21.30;67.60
35363;DHT22;21463;47.480;8.214;2023-08-01T06:12:09;21.30;67.70
35363;DHT22;21463;47.480;8.214;2023-08-01T06:13:11;21.30;67.60
35363;DHT22;21463;47.480;8.214;2023-08-01T06:14:14;21.30;67.60
35363;DHT22;21463;47.480;8.214;2023-08-01T06:15:19;21.30;67.70
35363;DHT22;21463;47.480;8.214;2023-08-01T06:16:23;21.30;67.70
35363;DHT22;21463;47.480;8.214;2023-08-01T06:17:29;21.30;67.70
35363;DHT22;21463;47.480;8.214;2023-08-01T06:18:31;21.30;67.70
35363;DHT22;21463;47.480;8.214;2023-08-01T06:19:34;21.30;67.70
35363;DHT22;21463;47.480;8.214;2023-08-01T06:20:36;21.30;67.70
35363;DHT22;21463;47.480;8.214;2023-08-01T06:21:38;21.30;67.70
35363;DHT22;21463;47.480;8.214;2023-08-01T06:22:41;21.30;67.70
35363;DHT22;21463;47.480;8.214;2023-08-01T06:23:44;21.30;67.70
35363;DHT22;21463;47.480;8.214;2023-08-01T06:24:46;21.30;67.60
35363;DHT22;21463;47.480;8.214;2023-08-01T06:25:48;21.30;67.70
35363;DHT22;21463;47.480;8.214;2023-08-01T06:26:50;21.30;67.70
35363;DHT22;21463;47.480;8.214;2023-08-01T06:27:53;21.30;67.70
35363;DHT22;21463;47.480;8.214;2023-08-01T06:28:55;21.30;67.70
35363;DHT22;21463;47.480;8.214;2023-08-01T06:29:57;21.30;67.70
35363;DHT22;21463;47.480;8.214;2023-08-01T06:31:00;21.30;67.70
35363;DHT22;21463;47.480;8.214;2023-08-01T06:32:02;21.30;67.70
35363;DHT22;21463;47.480;8.214;2023-08-01T06:33:04;21.30;67.70
35363;DHT22;21463;47.480;8.214;2023-08-01T06:34:08;21.30;67.70
35363;DHT22;21463;47.480;8.214;2023-08-01T06:35:10;21.30;67.70
35363;DHT22;21463;47.480;8.214;2023-08-01T06:36:13;21.30;67.70
35363;DHT22;21463;47.480;8.214;2023-08-01T06:37:20;21.30;67.70